Time;durP1;ratioP1;P1;durP2;ratioP2;P2;SDS_P1;SDS_P2;PMS_P1;PMS_P2;Temp;Humidity;BMP_temperature;BMP_pressure;BME280_temperature;BME280_humidity;BME280_pressure;Samples;Min_cycle;Max_cycle;Signal;HPM_P1;HPM_P2
2022/08/27 04:00:41;;;;;;;16.03;10.37;;;19.50;99.90;;;;;;5803907;23;21799;-74
2022/08/27 04:03:08;;;;;;;11.07;9.13;;;19.50;99.90;;;;;;4936543;29;20472;-74
2022/08/27 04:05:36;;;;;;;11.17;9.87;;;19.50;99.90;;;;;;4925980;28;20771;-74
2022/08/27 04:08:03;;;;;;;21.40;10.03;;;19.50;99.90;;;;;;4938309;29;20559;-73
2022/08/27 04:10:29;;;;;;;17.47;10.60;;;19.50;99.90;;;;;;4930484;28;20795;-74
2022/08/27 04:12:56;;;;;;;20.07;12.17;;;19.50;99.90;;;;;;4915120;29;20526;-75
2022/08/27 04:15:23;;;;;;;19.97;11.90;;;19.50;99.90;;;;;;4938150;23;20479;-73
2022/08/27 04:17:51;;;;;;;19.03;10.23;;;19.50;99.90;;;;;;4912413;29;20858;-72
2022/08/27 04:20:18;;;;;;;13.43;10.47;;;19.50;99.90;;;;;;4913475;29;20478;-72
2022/08/27 04:22:44;;;;;;;14.10;9.83;;;19.50;99.90;;;;;;4912182;29;20473;-72
2022/08/27 04:25:11;;;;;;;14.20;8.77;;;19.50;99.90;;;;;;4914082;29;20981;-73
2022/08/27 04:27:38;;;;;;;14.47;9.43;;;19.60;99.90;;;;;;4905339;29;20489;-73
2022/08/27 04:30:08;;;;;;;12.07;9.70;;;19.50;99.90;;;;;;4906800;29;20476;-73
2022/08/27 04:32:35;;;;;;;13.57;8.70;;;19.50;99.90;;;;;;4901124;29;20486;-72
2022/08/27 04:35:04;;;;;;;10.03;7.80;;;19.50;99.90;;;;;;4908984;29;20525;-72
2022/08/27 04:37:32;;;;;;;11.47;9.00;;;19.50;99.90;;;;;;4902393;29;20582;-73
2022/08/27 04:39:59;;;;;;;14.53;9.70;;;19.50;99.90;;;;;;4895306;29;20857;-73
2022/08/27 04:42:26;;;;;;;15.53;7.80;;;19.50;99.90;;;;;;4895706;29;20478;-72
2022/08/27 04:44:53;;;;;;;15.43;10.73;;;19.50;99.90;;;;;;4905609;29;20476;-72
2022/08/27 04:47:20;;;;;;;11.47;8.77;;;19.50;99.90;;;;;;4904751;29;20874;-72
2022/08/27 04:49:47;;;;;;;15.43;10.00;;;19.50;99.90;;;;;;4906920;29;20485;-71
2022/08/27 04:52:16;;;;;;;10.60;8.33;;;19.60;99.90;;;;;;4907629;29;20861;-71
2022/08/27 04:54:42;;;;;;;15.73;10.00;;;19.60;99.90;;;;;;4906662;29;20485;-72
2022/08/27 04:57:09;;;;;;;12.53;8.27;;;19.50;99.90;;;;;;4911392;29;20505;-73
2022/08/27 04:59:36;;;;;;;11.77;8.50;;;19.50;99.90;;;;;;4897770;29;20478;-73
2022/08/27 05:02:04;;;;;;;8.53;7.63;;;19.60;99.90;;;;;;4905627;29;20538;-72
2022/08/27 05:04:31;;;;;;;9.37;8.27;;;19.50;99.90;;;;;;4898320;29;20470;-71
2022/08/27 05:06:58;;;;;;;14.27;9.13;;;19.50;99.90;;;;;;4904325;29;20528;-73
2022/08/27 05:09:26;;;;;;;10.47;7.70;;;19.60;99.90;;;;;;4899310;29;20475;-73
2022/08/27 05:11:54;;;;;;;12.07;7.83;;;19.50;99.90;;;;;;4909488;29;20555;-73
2022/08/27 05:14:22;;;;;;;11.57;7.73;;;19.50;99.90;;;;;;4909163;29;20977;-73
2022/08/27 05:16:49;;;;;;;14.07;9.00;;;19.50;99.90;;;;;;4903148;29;20504;-73
2022/08/27 05:19:16;;;;;;;14.00;8.83;;;19.50;99.90;;;;;;4893210;29;20805;-72
2022/08/27 05:21:47;;;;;;;14.20;9.43;;;19.60;99.90;;;;;;4894191;29;20474;-73
2022/08/27 05:24:15;;;;;;;22.60;11.97;;;19.50;99.90;;;;;;4898131;29;20497;-73
2022/08/27 05:26:43;;;;;;;28.83;11.43;;;19.50;99.90;;;;;;4900888;29;20493;-73
2022/08/27 05:29:11;;;;;;;19.40;11.43;;;19.50;99.90;;;;;;4900003;29;20849;-73
2022/08/27 05:31:38;;;;;;;13.63;10.00;;;19.50;99.90;;;;;;4901239;29;20466;-72
2022/08/27 05:34:05;;;;;;;16.27;10.43;;;19.50;99.90;;;;;;4909157;29;20474;-73
2022/08/27 05:36:34;;;;;;;15.17;8.77;;;19.50;99.90;;;;;;4910082;29;20530;-71
2022/08/27 05:39:04;;;;;;;18.57;11.10;;;19.50;99.90;;;;;;4888213;29;21106;-72
2022/08/27 05:41:32;;;;;;;17.73;9.10;;;19.50;99.90;;;;;;4896100;29;20482;-72
2022/08/27 05:44:03;;;;;;;14.97;9.43;;;19.60;99.90;;;;;;4903331;29;20508;-72
2022/08/27 05:46:30;;;;;;;17.60;8.37;;;19.50;99.90;;;;;;4912188;29;20525;-71
2022/08/27 05:48:58;;;;;;;14.57;9.93;;;19.50;99.90;;;;;;4897836;29;20554;-74
2022/08/27 05:51:28;;;;;;;15.23;8.97;;;19.50;99.90;;;;;;4905834;29;20974;-73
2022/08/27 05:53:56;;;;;;;14.70;9.60;;;19.50;99.90;;;;;;4908809;29;20468;-73
2022/08/27 05:56:24;;;;;;;15.83;8.43;;;19.50;99.90;;;;;;4913170;29;20572;-72
2022/08/27 06:01:39;;;;;;;13.37;10.03;;;19.60;99.90;;;;;;4898861;29;20665;-73
2022/08/27 06:04:07;;;;;;;13.70;11.13;;;19.60;99.90;;;;;;4904212;29;20823;-73
2022/08/27 06:06:35;;;;;;;11.30;7.80;;;19.60;99.90;;;;;;4912981;29;20503;-73
2022/08/27 06:09:02;;;;;;;16.43;10.30;;;19.60;99.90;;;;;;4896855;29;20474;-73
2022/08/27 06:11:30;;;;;;;15.17;10.33;;;19.50;99.90;;;;;;4896339;29;20480;-73
2022/08/27 06:13:57;;;;;;;15.93;10.10;;;19.50;99.90;;;;;;4904913;29;20628;-72
2022/08/27 06:16:24;;;;;;;16.33;10.20;;;19.60;99.90;;;;;;4904074;29;20501;-73
2022/08/27 06:18:52;;;;;;;15.87;10.40;;;19.60;99.90;;;;;;4893638;29;20496;-72
2022/08/27 06:21:21;;;;;;;12.53;8.23;;;19.60;99.90;;;;;;4896695;29;20486;-74
2022/08/27 06:23:48;;;;;;;14.80;10.83;;;19.60;99.90;;;;;;4903846;29;20474;-73
2022/08/27 06:26:17;;;;;;;15.83;10.17;;;19.60;99.90;;;;;;4904616;29;21051;-72
2022/08/27 06:28:44;;;;;;;15.87;9.37;;;19.60;99.90;;;;;;4894532;29;20484;-72
2022/08/27 06:31:13;;;;;;;12.80;9.23;;;19.60;99.90;;;;;;4898198;29;20516;-73
2022/08/27 06:33:40;;;;;;;21.67;11.47;;;19.50;99.90;;;;;;4900141;29;20508;-72
2022/08/27 06:36:11;;;;;;;25.40;13.20;;;19.50;99.90;;;;;;4913999;29;20502;-72
2022/08/27 06:38:39;;;;;;;18.13;11.20;;;19.50;99.90;;;;;;4895757;29;20502;-73
2022/08/27 06:41:07;;;;;;;12.83;8.97;;;19.60;99.90;;;;;;4897243;29;20874;-72
2022/08/27 06:43:35;;;;;;;20.40;9.00;;;19.60;99.90;;;;;;4910950;29;20560;-73
2022/08/27 06:46:03;;;;;;;11.20;8.03;;;19.60;99.90;;;;;;4900759;29;20491;-72
2022/08/27 06:48:30;;;;;;;14.93;9.57;;;19.60;99.90;;;;;;4904864;29;20778;-72
2022/08/27 06:50:56;;;;;;;15.30;9.73;;;19.70;99.90;;;;;;4897961;29;20952;-72
2022/08/27 06:53:24;;;;;;;15.83;9.93;;;19.70;99.90;;;;;;4914071;29;20477;-72
2022/08/27 06:55:51;;;;;;;13.87;8.77;;;19.70;99.90;;;;;;4899375;29;20501;-72
2022/08/27 06:58:19;;;;;;;18.43;10.37;;;19.70;99.90;;;;;;4905199;29;20501;-72
2022/08/27 07:00:45;;;;;;;12.53;8.80;;;19.80;99.90;;;;;;4896011;29;20497;-72
2022/08/27 07:03:12;;;;;;;10.97;8.90;;;19.80;99.90;;;;;;4896828;29;20474;-72
2022/08/27 07:05:40;;;;;;;10.20;8.13;;;19.90;99.90;;;;;;4890004;29;20503;-72
2022/08/27 07:08:09;;;;;;;13.17;9.07;;;19.90;99.90;;;;;;4895930;29;20468;-72
2022/08/27 07:10:37;;;;;;;13.10;9.87;;;19.90;99.90;;;;;;4897756;29;20499;-73
2022/08/27 07:13:04;;;;;;;18.20;8.87;;;19.90;99.90;;;;;;4896127;29;20471;-71
2022/08/27 07:15:31;;;;;;;11.63;8.67;;;19.90;99.90;;;;;;4891696;29;20996;-73
2022/08/27 07:17:58;;;;;;;14.13;9.43;;;19.90;99.90;;;;;;4896704;29;20586;-72
2022/08/27 07:20:25;;;;;;;10.10;8.00;;;20.00;99.90;;;;;;4903377;29;20815;-72
2022/08/27 07:22:53;;;;;;;11.03;7.90;;;20.00;99.90;;;;;;4909208;29;20465;-72
2022/08/27 07:25:20;;;;;;;10.53;6.83;;;20.10;99.90;;;;;;4899790;29;20959;-72
2022/08/27 07:27:48;;;;;;;9.97;7.70;;;20.10;99.90;;;;;;4899664;29;20473;-72
2022/08/27 07:30:16;;;;;;;10.93;8.60;;;20.10;99.90;;;;;;4905779;29;20485;-73
2022/08/27 07:32:44;;;;;;;8.90;8.00;;;20.10;99.90;;;;;;4907852;29;20476;-72
2022/08/27 07:35:11;;;;;;;9.40;7.40;;;20.20;99.90;;;;;;4900211;29;20505;-72
2022/08/27 07:37:39;;;;;;;8.30;7.40;;;20.10;99.90;;;;;;4896366;29;20474;-72
2022/08/27 07:40:08;;;;;;;9.83;7.47;;;20.10;99.90;;;;;;4900823;29;20508;-73
2022/08/27 07:45:21;;;;;;;8.47;6.83;;;20.10;99.90;;;;;;4901533;29;20473;-72
2022/08/27 07:47:49;;;;;;;11.60;7.10;;;20.10;99.90;;;;;;4908301;29;20478;-73
2022/08/27 07:50:16;;;;;;;11.20;8.13;;;20.00;99.90;;;;;;4903800;29;20857;-73
2022/08/27 07:52:43;;;;;;;10.67;8.90;;;20.00;99.90;;;;;;4900887;29;20475;-74
2022/08/27 07:55:10;;;;;;;17.70;7.80;;;20.00;99.90;;;;;;4884158;29;20946;-74
2022/08/27 07:57:37;;;;;;;7.00;5.93;;;20.00;99.90;;;;;;4913326;29;20476;-73
2022/08/27 08:00:06;;;;;;;11.07;8.00;;;20.00;99.90;;;;;;4899368;29;20475;-73
2022/08/27 08:02:34;;;;;;;7.90;6.90;;;19.90;99.90;;;;;;4893124;29;20517;-72
2022/08/27 08:05:01;;;;;;;6.40;5.90;;;19.80;99.90;;;;;;4893752;29;20975;-73
2022/08/27 08:07:28;;;;;;;8.23;7.20;;;19.80;99.90;;;;;;4895632;29;20497;-73
2022/08/27 08:09:55;;;;;;;12.00;6.93;;;19.80;99.90;;;;;;4887237;29;20855;-73
2022/08/27 08:12:21;;;;;;;8.57;6.40;;;19.80;99.90;;;;;;4895245;29;20916;-73
2022/08/27 08:14:48;;;;;;;7.47;6.80;;;19.80;99.90;;;;;;4890842;29;20595;-74
2022/08/27 08:17:15;;;;;;;12.37;7.80;;;19.80;99.90;;;;;;4895343;29;20497;-73
2022/08/27 08:19:43;;;;;;;9.40;7.40;;;19.80;99.90;;;;;;4897510;29;20504;-73
2022/08/27 08:22:10;;;;;;;8.97;6.90;;;19.80;99.90;;;;;;4900354;29;20477;-73
2022/08/27 08:24:36;;;;;;;10.57;7.43;;;19.90;99.90;;;;;;4893510;29;20478;-73
2022/08/27 08:27:03;;;;;;;16.00;9.50;;;19.90;99.90;;;;;;4909906;29;20494;-74
2022/08/27 08:29:30;;;;;;;13.53;9.20;;;19.90;99.90;;;;;;4901092;29;20985;-73
2022/08/27 08:31:56;;;;;;;14.63;9.97;;;19.90;99.90;;;;;;4895783;29;20528;-74
2022/08/27 08:34:23;;;;;;;13.50;9.00;;;19.90;99.90;;;;;;4893122;29;20478;-74
2022/08/27 08:36:51;;;;;;;14.43;7.60;;;19.80;99.90;;;;;;4909501;29;20495;-73
2022/08/27 08:39:19;;;;;;;12.20;7.50;;;19.80;99.90;;;;;;4889849;29;20907;-74
2022/08/27 08:41:51;;;;;;;9.27;6.20;;;19.90;99.90;;;;;;4910624;29;20475;-74
2022/08/27 08:44:29;;;;;;;11.60;7.97;;;19.80;99.90;;;;;;4886725;29;20485;-75
2022/08/27 08:47:02;;;;;;;10.90;9.03;;;19.80;99.90;;;;;;4895442;29;20563;-74
2022/08/27 08:49:34;;;;;;;9.47;7.83;;;19.70;99.90;;;;;;4889705;29;20479;-73
2022/08/27 08:52:14;;;;;;;11.80;7.70;;;19.70;99.90;;;;;;4909022;29;20963;-73
2022/08/27 08:54:43;;;;;;;9.63;7.67;;;19.70;99.90;;;;;;4890675;29;20500;-73
2022/08/27 08:57:18;;;;;;;13.03;9.20;;;19.70;99.90;;;;;;4910507;29;20565;-74
2022/08/27 08:59:54;;;;;;;16.27;10.93;;;19.70;99.90;;;;;;4905765;29;20506;-74
2022/08/27 09:02:21;;;;;;;18.73;11.30;;;19.70;99.90;;;;;;4907097;29;20566;-74
2022/08/27 09:04:48;;;;;;;14.70;9.57;;;19.80;99.90;;;;;;4902004;29;20513;-73
2022/08/27 09:07:29;;;;;;;12.80;9.60;;;19.70;99.90;;;;;;4895870;29;20518;-73
2022/08/27 09:10:03;;;;;;;12.93;8.77;;;19.70;99.90;;;;;;4895043;29;20476;-73
2022/08/27 09:12:32;;;;;;;15.67;10.03;;;19.80;99.90;;;;;;4902884;29;20471;-74
2022/08/27 09:15:03;;;;;;;10.07;7.60;;;19.80;99.90;;;;;;4903097;29;20477;-73
2022/08/27 09:17:29;;;;;;;9.90;7.97;;;20.00;99.90;;;;;;4896605;29;20491;-74
2022/08/27 09:19:56;;;;;;;12.40;9.20;;;20.10;99.90;;;;;;4899356;29;20497;-73
2022/08/27 09:22:31;;;;;;;10.30;8.33;;;20.10;99.90;;;;;;4906370;29;20994;-73
2022/08/27 09:25:09;;;;;;;12.23;8.90;;;20.20;99.90;;;;;;4902143;29;20478;-73
2022/08/27 09:27:40;;;;;;;15.10;9.00;;;20.20;99.90;;;;;;4895377;29;20928;-72
2022/08/27 09:30:10;;;;;;;10.80;8.10;;;20.10;99.90;;;;;;4901281;29;20477;-73
2022/08/27 09:32:37;;;;;;;11.83;8.60;;;20.10;99.90;;;;;;4906159;29;20477;-73
2022/08/27 09:35:08;;;;;;;11.70;7.40;;;20.10;99.90;;;;;;4896333;29;20846;-73
2022/08/27 09:37:43;;;;;;;11.80;9.00;;;20.10;99.90;;;;;;4895728;29;20470;-73
2022/08/27 09:40:17;;;;;;;13.87;8.53;;;20.10;99.90;;;;;;4900336;29;21032;-72
2022/08/27 09:42:47;;;;;;;11.63;7.80;;;20.10;99.90;;;;;;4901272;29;20494;-73
2022/08/27 09:45:16;;;;;;;15.67;9.70;;;20.10;99.90;;;;;;4893507;29;20475;-73
2022/08/27 09:47:45;;;;;;;11.30;8.20;;;20.10;99.90;;;;;;4898798;29;20463;-72
2022/08/27 09:50:14;;;;;;;14.80;9.03;;;20.10;99.90;;;;;;4904896;29;20560;-73
2022/08/27 09:52:53;;;;;;;14.97;7.47;;;20.10;99.90;;;;;;4906011;29;20466;-74
2022/08/27 09:55:29;;;;;;;11.30;7.53;;;20.10;99.90;;;;;;4894985;29;20526;-73
2022/08/27 09:57:57;;;;;;;7.60;6.17;;;20.00;99.90;;;;;;4911025;29;20469;-72
2022/08/27 10:00:33;;;;;;;8.90;7.10;;;20.00;99.90;;;;;;4901078;29;20526;-73
2022/08/27 10:03:01;;;;;;;13.80;8.73;;;20.00;99.90;;;;;;4909586;29;21243;-72
2022/08/27 10:05:31;;;;;;;15.60;9.83;;;19.90;99.90;;;;;;4899876;29;20501;-73
2022/08/27 10:08:02;;;;;;;16.83;8.90;;;19.80;99.90;;;;;;4911261;29;20497;-73
2022/08/27 10:10:39;;;;;;;9.50;8.03;;;19.80;99.90;;;;;;4908970;29;20497;-73
2022/08/27 10:13:11;;;;;;;8.23;6.53;;;19.80;99.90;;;;;;4908821;29;20469;-73
2022/08/27 10:15:45;;;;;;;13.23;7.60;;;19.70;99.90;;;;;;4908115;29;20612;-73
2022/08/27 10:18:18;;;;;;;9.53;8.20;;;19.80;99.90;;;;;;4930318;23;20561;-71
2022/08/27 10:20:55;;;;;;;8.20;7.33;;;19.80;99.90;;;;;;4934809;29;20496;-71
2022/08/27 10:23:31;;;;;;;11.97;9.97;;;19.80;99.90;;;;;;4935179;29;20474;-72
2022/08/27 10:26:08;;;;;;;7.97;7.20;;;19.80;99.90;;;;;;4940467;29;20471;-72
2022/08/27 10:28:47;;;;;;;7.77;5.73;;;19.70;99.90;;;;;;4929596;28;20621;-72
2022/08/27 10:31:22;;;;;;;9.53;7.10;;;19.70;99.90;;;;;;4943205;28;20468;-72
2022/08/27 10:34:02;;;;;;;12.80;8.13;;;19.60;99.90;;;;;;4938191;29;20507;-72
2022/08/27 10:36:40;;;;;;;10.27;7.73;;;19.60;99.90;;;;;;4946583;28;21007;-72
2022/08/27 10:39:22;;;;;;;13.03;8.03;;;19.50;99.90;;;;;;4928863;29;20502;-72
2022/08/27 10:41:58;;;;;;;7.67;6.83;;;19.50;99.90;;;;;;4932986;29;20480;-72
2022/08/27 10:44:49;;;;;;;5.87;5.30;;;19.50;99.90;;;;;;4941986;29;20458;-72
2022/08/27 10:47:29;;;;;;;10.93;7.60;;;19.50;99.90;;;;;;4939903;29;20796;-72
2022/08/27 10:50:02;;;;;;;12.03;8.00;;;19.50;99.90;;;;;;4947792;28;20488;-72
2022/08/27 10:52:35;;;;;;;14.60;8.47;;;19.50;99.90;;;;;;4935266;29;20507;-72
2022/08/27 10:55:13;;;;;;;10.10;7.17;;;19.50;99.90;;;;;;4949393;28;20504;-72
2022/08/27 10:58:07;;;;;;;7.80;5.40;;;19.50;99.90;;;;;;4942603;29;20479;-72
2022/08/27 11:00:42;;;;;;;6.93;6.20;;;19.50;99.90;;;;;;4932033;29;20492;-72
2022/08/27 11:03:13;;;;;;;7.93;6.57;;;19.40;99.90;;;;;;4941566;29;20967;-72
2022/08/27 11:05:43;;;;;;;7.73;6.53;;;19.40;99.90;;;;;;4947311;28;20954;-72
2022/08/27 11:08:17;;;;;;;22.77;6.50;;;19.30;99.90;;;;;;4945624;28;20484;-72
2022/08/27 11:10:49;;;;;;;6.17;5.67;;;19.40;99.90;;;;;;4943841;28;20472;-72
2022/08/27 11:13:23;;;;;;;6.00;5.60;;;19.30;99.90;;;;;;4933855;29;20598;-70
2022/08/27 11:15:52;;;;;;;5.53;5.00;;;19.30;99.90;;;;;;4938499;29;20483;-71
2022/08/27 11:18:27;;;;;;;5.90;5.37;;;19.30;99.90;;;;;;4945197;28;20491;-72
2022/08/27 11:21:00;;;;;;;7.43;6.67;;;19.30;99.90;;;;;;4942921;28;20498;-72
2022/08/27 11:23:32;;;;;;;6.33;4.87;;;19.30;99.90;;;;;;4934381;29;20481;-72
2022/08/27 11:26:02;;;;;;;5.37;4.70;;;19.30;99.90;;;;;;4944544;28;20475;-71
2022/08/27 11:28:36;;;;;;;8.90;6.47;;;19.30;99.90;;;;;;4939387;28;20506;-71
2022/08/27 11:31:09;;;;;;;6.37;5.17;;;19.40;99.90;;;;;;4937723;28;20634;-71
2022/08/27 11:33:41;;;;;;;6.97;5.10;;;19.50;99.90;;;;;;4942137;29;20501;-72
2022/08/27 11:36:46;;;;;;;6.80;6.10;;;19.50;99.90;;;;;;4941103;29;20475;-71
2022/08/27 11:39:25;;;;;;;6.40;5.83;;;19.60;99.90;;;;;;4945881;29;20495;-71
2022/08/27 11:42:09;;;;;;;6.53;5.90;;;19.50;99.90;;;;;;4934098;28;20487;-71
2022/08/27 11:44:42;;;;;;;8.10;7.27;;;19.60;99.90;;;;;;4944207;29;20467;-73
2022/08/27 11:47:13;;;;;;;8.47;5.97;;;19.60;99.90;;;;;;4944209;28;20571;-71
2022/08/27 11:49:47;;;;;;;8.70;5.60;;;19.80;99.90;;;;;;4941289;28;20484;-71
2022/08/27 11:52:23;;;;;;;6.13;5.53;;;19.90;99.90;;;;;;4931839;29;20574;-71
2022/08/27 11:54:52;;;;;;;4.60;4.20;;;20.10;99.90;;;;;;4946266;29;20459;-71
2022/08/27 11:57:30;;;;;;;5.10;4.63;;;20.30;99.90;;;;;;4944443;28;20496;-71
2022/08/27 11:59:57;;;;;;;4.50;4.10;;;20.50;99.90;;;;;;4935513;29;20490;-71
2022/08/27 12:02:26;;;;;;;4.60;4.23;;;20.60;99.90;;;;;;4931337;29;20478;-71
2022/08/27 12:04:56;;;;;;;4.53;4.33;;;20.70;99.90;;;;;;4939680;28;20975;-71
2022/08/27 12:07:34;;;;;;;10.37;4.87;;;20.70;99.90;;;;;;4941451;29;20476;-71
2022/08/27 12:10:24;;;;;;;5.90;5.43;;;20.80;99.90;;;;;;4946615;29;20463;-71
2022/08/27 12:13:04;;;;;;;8.20;5.73;;;20.70;99.90;;;;;;4931562;29;20484;-71
2022/08/27 12:15:48;;;;;;;10.83;6.47;;;20.60;99.90;;;;;;4951677;29;20484;-71
2022/08/27 12:18:35;;;;;;;8.50;6.27;;;20.60;99.90;;;;;;4938028;29;20504;-71
2022/08/27 12:21:10;;;;;;;13.13;6.83;;;20.70;99.90;;;;;;4944173;28;20489;-71
2022/08/27 12:23:43;;;;;;;10.83;7.13;;;20.70;99.90;;;;;;4935960;29;20824;-72
2022/08/27 12:26:26;;;;;;;8.90;8.00;;;20.60;99.90;;;;;;4948101;28;20478;-72
2022/08/27 12:29:28;;;;;;;7.37;5.83;;;20.70;99.90;;;;;;4934724;29;20509;-72
2022/08/27 12:32:04;;;;;;;7.40;6.67;;;20.70;99.90;;;;;;4931772;29;20472;-72
2022/08/27 12:34:41;;;;;;;7.40;6.70;;;20.70;99.90;;;;;;4932765;29;20470;-72
2022/08/27 12:37:09;;;;;;;7.80;7.10;;;20.70;99.90;;;;;;4931509;29;20474;-71
2022/08/27 12:39:42;;;;;;;5.93;5.23;;;20.70;99.90;;;;;;4932912;29;20516;-72
2022/08/27 12:42:13;;;;;;;7.60;6.90;;;20.60;99.90;;;;;;4928604;29;20478;-72
2022/08/27 12:44:41;;;;;;;7.20;6.60;;;20.60;99.90;;;;;;4932426;29;20540;-72
2022/08/27 12:47:12;;;;;;;7.23;6.63;;;20.70;99.90;;;;;;4940434;29;20471;-72
2022/08/27 12:49:45;;;;;;;7.87;7.13;;;20.80;99.90;;;;;;4935316;29;20493;-72
2022/08/27 12:52:29;;;;;;;9.20;6.63;;;20.70;99.90;;;;;;4939796;29;20475;-72
2022/08/27 12:55:10;;;;;;;9.17;6.47;;;20.70;99.90;;;;;;4936132;29;20999;-72
2022/08/27 12:57:44;;;;;;;9.27;7.23;;;20.80;99.90;;;;;;4943035;29;20457;-72
2022/08/27 13:00:18;;;;;;;7.80;7.07;;;21.00;99.90;;;;;;4940485;28;20484;-72
2022/08/27 13:03:00;;;;;;;6.60;6.00;;;21.30;99.90;;;;;;4940384;29;20474;-72
2022/08/27 13:05:37;;;;;;;5.87;5.47;;;21.30;99.90;;;;;;4941024;29;20478;-72
2022/08/27 13:08:04;;;;;;;6.43;5.00;;;21.40;99.90;;;;;;4951985;28;20494;-72
2022/08/27 13:10:32;;;;;;;6.73;6.23;;;21.50;99.90;;;;;;4935292;28;20525;-72
2022/08/27 13:13:07;;;;;;;6.90;6.30;;;21.40;99.90;;;;;;4940082;29;20474;-71
2022/08/27 13:15:36;;;;;;;7.63;6.93;;;21.40;99.90;;;;;;4940974;28;20474;-72
2022/08/27 13:18:05;;;;;;;6.77;5.70;;;21.40;99.90;;;;;;4939452;29;20498;-71
2022/08/27 13:20:36;;;;;;;7.70;6.17;;;21.40;99.90;;;;;;4938437;28;20490;-72
2022/08/27 13:23:03;;;;;;;5.77;5.30;;;21.60;99.90;;;;;;4940872;28;20466;-72
2022/08/27 13:25:32;;;;;;;6.43;6.00;;;21.70;99.90;;;;;;4943099;29;20485;-71
2022/08/27 13:28:06;;;;;;;5.20;4.67;;;21.70;99.90;;;;;;4939643;29;20670;-72
2022/08/27 13:30:35;;;;;;;6.60;5.90;;;21.70;99.90;;;;;;4943542;29;20557;-71
2022/08/27 13:33:03;;;;;;;4.93;4.37;;;21.80;99.90;;;;;;4949967;29;20469;-72
2022/08/27 13:35:30;;;;;;;5.00;4.50;;;21.80;99.90;;;;;;4945073;28;20482;-72
2022/08/27 13:37:57;;;;;;;4.00;3.80;;;22.00;99.90;;;;;;4935386;29;20586;-72
2022/08/27 13:40:29;;;;;;;6.40;3.90;;;22.10;99.90;;;;;;4944577;29;20490;-72
2022/08/27 13:42:57;;;;;;;4.60;3.97;;;22.10;99.90;;;;;;4935219;29;20580;-72
2022/08/27 13:45:25;;;;;;;4.30;4.00;;;22.20;99.90;;;;;;4942848;29;20987;-71
2022/08/27 13:47:54;;;;;;;2.90;2.80;;;22.10;99.90;;;;;;4940025;29;20531;-72
2022/08/27 13:50:24;;;;;;;2.17;2.07;;;22.00;99.90;;;;;;4944814;28;20473;-71
2022/08/27 13:55:38;;;;;;;2.30;2.13;;;22.10;99.90;;;;;;4946889;29;20511;-72
2022/08/27 13:58:13;;;;;;;3.10;2.40;;;22.30;99.90;;;;;;4941491;29;20855;-72
2022/08/27 14:00:40;;;;;;;2.13;1.93;;;22.40;99.90;;;;;;4926186;29;21037;-72
2022/08/27 14:06:01;;;;;;;2.40;1.83;;;22.60;99.90;;;;;;5085107;27;21094;-71
2022/08/27 14:08:31;;;;;;;2.53;2.07;;;22.70;99.90;;;;;;5086117;28;20480;-71
2022/08/27 14:11:03;;;;;;;2.57;2.43;;;22.70;99.90;;;;;;5086483;28;20495;-71
2022/08/27 14:13:39;;;;;;;2.40;2.40;;;22.60;99.90;;;;;;5078576;28;20469;-71
2022/08/27 14:16:16;;;;;;;0.90;0.90;;;22.60;99.90;;;;;;5085926;28;20465;-71
2022/08/27 14:18:52;;;;;;;1.40;1.10;;;22.50;99.90;;;;;;5067093;28;20491;-71
2022/08/27 14:21:21;;;;;;;2.60;1.37;;;22.60;99.90;;;;;;5078742;28;20558;-71
2022/08/27 14:23:48;;;;;;;0.90;0.90;;;22.60;99.90;;;;;;5087044;28;20463;-71
2022/08/27 14:26:16;;;;;;;0.90;0.80;;;22.70;99.90;;;;;;5078285;28;20468;-71
2022/08/27 14:28:43;;;;;;;2.50;1.70;;;22.70;99.90;;;;;;5086565;28;20567;-71
2022/08/27 14:31:10;;;;;;;2.20;1.30;;;22.70;99.90;;;;;;5084252;28;20468;-71
2022/08/27 14:33:37;;;;;;;1.93;1.80;;;22.60;99.90;;;;;;5086757;28;20462;-71
2022/08/27 14:36:05;;;;;;;1.83;1.43;;;22.50;99.90;;;;;;5085960;28;21013;-71
2022/08/27 14:38:36;;;;;;;0.80;0.80;;;22.50;99.90;;;;;;5086755;28;20496;-71
2022/08/27 14:41:03;;;;;;;0.70;0.70;;;22.50;99.90;;;;;;5083273;28;20476;-70
2022/08/27 14:43:30;;;;;;;1.37;0.70;;;22.60;99.90;;;;;;5084421;28;20471;-70
2022/08/27 14:45:58;;;;;;;1.23;0.50;;;22.50;99.90;;;;;;5085418;28;20952;-71
2022/08/27 14:48:29;;;;;;;0.60;0.60;;;22.50;99.90;;;;;;5086031;28;20483;-71
2022/08/27 14:50:57;;;;;;;1.73;0.90;;;22.60;99.90;;;;;;5078334;28;20472;-71
2022/08/27 14:53:25;;;;;;;1.27;0.73;;;22.70;99.90;;;;;;5086107;28;20465;-71
2022/08/27 14:55:54;;;;;;;2.17;0.67;;;22.80;99.90;;;;;;5085221;28;20556;-71
2022/08/27 14:58:22;;;;;;;0.87;0.87;;;22.90;99.90;;;;;;5086133;28;20480;-71
2022/08/27 15:00:50;;;;;;;0.77;0.70;;;22.90;99.90;;;;;;5082772;28;20494;-71
2022/08/27 15:03:18;;;;;;;0.73;0.73;;;22.80;99.90;;;;;;5086314;28;20463;-71
2022/08/27 15:05:46;;;;;;;0.70;0.70;;;22.80;99.90;;;;;;5085188;28;20573;-71
2022/08/27 15:08:14;;;;;;;0.40;0.40;;;22.90;99.90;;;;;;5086693;28;20484;-71
2022/08/27 15:10:41;;;;;;;1.13;0.80;;;22.80;99.90;;;;;;5084218;28;20497;-71
2022/08/27 15:13:11;;;;;;;0.70;0.70;;;22.80;99.90;;;;;;5085703;28;20483;-71
2022/08/27 15:15:38;;;;;;;0.67;0.67;;;22.80;99.90;;;;;;5081712;28;20473;-72
2022/08/27 15:18:06;;;;;;;0.90;0.90;;;22.80;99.90;;;;;;5073835;28;20503;-71
2022/08/27 15:20:33;;;;;;;0.80;0.80;;;22.80;99.90;;;;;;5070903;28;20480;-71
2022/08/27 15:23:02;;;;;;;1.73;0.90;;;22.70;99.90;;;;;;5073797;28;20460;-71
2022/08/27 15:25:30;;;;;;;2.23;0.70;;;22.70;99.90;;;;;;5073106;28;20493;-72
2022/08/27 15:27:57;;;;;;;0.60;0.60;;;22.70;99.90;;;;;;5074360;28;20491;-72
2022/08/27 15:30:28;;;;;;;1.27;0.90;;;22.70;99.90;;;;;;5069083;28;20961;-72
2022/08/27 15:32:56;;;;;;;0.60;0.60;;;22.70;99.90;;;;;;5074093;28;20461;-72
2022/08/27 15:35:26;;;;;;;4.00;0.90;;;22.70;99.90;;;;;;5072004;28;20839;-72
2022/08/27 15:37:54;;;;;;;1.93;1.10;;;22.70;99.90;;;;;;5073845;28;20464;-72
2022/08/27 15:40:22;;;;;;;0.60;0.60;;;22.80;99.90;;;;;;5070765;28;20479;-72
2022/08/27 15:42:55;;;;;;;1.80;0.50;;;22.80;99.90;;;;;;5073610;28;20461;-72
2022/08/27 15:45:23;;;;;;;0.60;0.60;;;22.90;99.90;;;;;;5073379;28;20489;-72
2022/08/27 15:47:52;;;;;;;3.00;0.67;;;22.90;99.90;;;;;;5064175;28;20465;-70
2022/08/27 15:50:20;;;;;;;1.70;0.50;;;22.90;99.90;;;;;;5071823;28;20479;-70
2022/08/27 15:52:47;;;;;;;2.30;1.03;;;22.90;99.90;;;;;;5067290;28;20465;-70
2022/08/27 15:55:20;;;;;;;0.60;0.60;;;23.00;99.90;;;;;;5072401;28;20941;-70
2022/08/27 15:57:47;;;;;;;1.23;0.90;;;23.00;99.90;;;;;;5070252;28;20642;-70
2022/08/27 16:00:16;;;;;;;0.60;0.60;;;23.00;99.90;;;;;;5063853;28;20561;-70
2022/08/27 16:02:43;;;;;;;0.63;0.63;;;23.10;99.90;;;;;;5066573;28;20473;-70
2022/08/27 16:05:12;;;;;;;1.13;1.13;;;23.10;99.90;;;;;;5071654;28;20485;-70
2022/08/27 16:07:39;;;;;;;1.70;0.60;;;23.10;99.90;;;;;;5070443;28;20466;-69
2022/08/27 16:10:07;;;;;;;0.50;0.43;;;23.10;99.90;;;;;;5071429;28;20469;-71
2022/08/27 16:12:34;;;;;;;2.30;0.87;;;23.10;99.90;;;;;;5068196;28;20480;-71
2022/08/27 16:15:01;;;;;;;0.80;0.80;;;23.10;99.90;;;;;;5071342;28;20981;-71
2022/08/27 16:17:28;;;;;;;1.10;0.67;;;23.10;99.90;;;;;;5070495;28;20466;-71
2022/08/27 16:19:55;;;;;;;0.70;0.70;;;23.10;99.90;;;;;;5090954;22;20482;-74
2022/08/27 16:22:23;;;;;;;0.93;0.77;;;23.20;99.90;;;;;;5031615;28;20483;-76
2022/08/27 16:24:49;;;;;;;0.70;0.43;;;23.20;99.90;;;;;;5029662;28;20491;-76
2022/08/27 16:27:16;;;;;;;0.70;0.60;;;23.30;99.90;;;;;;5022524;28;20472;-75
2022/08/27 16:29:43;;;;;;;0.73;0.73;;;23.30;99.90;;;;;;5031528;28;20474;-76
2022/08/27 16:32:15;;;;;;;2.10;0.70;;;23.20;99.90;;;;;;5019063;28;20998;-76
2022/08/27 16:34:42;;;;;;;0.63;0.63;;;23.20;99.90;;;;;;5011249;28;20460;-76
2022/08/27 16:37:09;;;;;;;1.17;0.43;;;23.20;99.90;;;;;;5018982;28;20468;-76
2022/08/27 16:39:37;;;;;;;3.43;0.67;;;23.10;99.90;;;;;;5023512;28;20576;-77
2022/08/27 16:42:04;;;;;;;0.90;0.90;;;23.10;99.90;;;;;;5017749;28;20788;-76
2022/08/27 16:44:33;;;;;;;1.40;0.80;;;22.90;99.90;;;;;;5013459;28;20460;-76
2022/08/27 16:46:59;;;;;;;2.10;0.40;;;22.90;99.90;;;;;;5024036;28;20821;-76
2022/08/27 16:52:11;;;;;;;0.50;0.50;;;22.70;99.90;;;;;;5012772;28;20835;-76
2022/08/27 16:54:40;;;;;;;0.60;0.50;;;22.60;99.90;;;;;;5022559;28;20469;-76
2022/08/27 16:57:07;;;;;;;0.93;0.93;;;22.50;99.90;;;;;;5025291;28;20467;-76
2022/08/27 16:59:33;;;;;;;0.47;0.47;;;22.40;99.90;;;;;;5022086;28;20465;-76
2022/08/27 17:02:01;;;;;;;0.90;0.90;;;22.30;99.90;;;;;;5025552;28;20498;-76
2022/08/27 17:04:27;;;;;;;1.00;0.90;;;22.20;99.90;;;;;;5010758;28;20498;-76
2022/08/27 17:06:55;;;;;;;1.53;1.40;;;22.20;99.90;;;;;;5011245;28;20478;-76
2022/08/27 17:09:22;;;;;;;2.30;0.70;;;22.10;99.90;;;;;;5011435;28;20468;-76